Time;durP1;ratioP1;P1;durP2;ratioP2;P2;SDS_P1;SDS_P2;PMS_P1;PMS_P2;Temp;Humidity;BMP_temperature;BMP_pressure;BME280_temperature;BME280_humidity;BME280_pressure;Samples;Min_cycle;Max_cycle;Signal;HPM_P1;HPM_P2
2020/12/13 00:02:08;;;;;;;26.88;14.45;;;;;;;-144.15;0.00;65763.66;10234107;28;20061;-72
2020/12/13 00:07:07;;;;;;;6.13;5.43;;;;;;;-144.15;0.00;65763.66;10233438;28;20092;-71
2020/12/13 00:12:05;;;;;;;5.18;4.65;;;;;;;-144.15;0.00;65763.66;10233743;28;20512;-71
2020/12/13 00:17:02;;;;;;;5.05;4.32;;;;;;;-144.15;0.00;65763.66;10235924;28;20477;-72
2020/12/13 00:22:01;;;;;;;9.15;6.90;;;;;;;-144.15;0.00;65763.66;10235131;28;20149;-71
2020/12/13 00:26:59;;;;;;;10.60;7.88;;;;;;;-144.15;0.00;65763.66;10232144;28;20065;-71
2020/12/13 00:31:57;;;;;;;9.13;7.03;;;;;;;-144.15;0.00;65763.66;10232589;28;20080;-71
2020/12/13 00:36:55;;;;;;;5.47;4.70;;;;;;;-144.15;0.00;65763.66;10233707;28;20542;-71
2020/12/13 00:41:55;;;;;;;21.10;14.63;;;;;;;-144.15;0.00;65763.66;10236164;28;20475;-71
2020/12/13 00:46:53;;;;;;;5.45;4.32;;;;;;;-144.15;0.00;65763.66;10235713;28;20095;-71
2020/12/13 00:51:51;;;;;;;4.88;4.22;;;;;;;-144.15;0.00;65763.66;10236087;28;20080;-70
2020/12/13 00:56:49;;;;;;;7.20;6.20;;;;;;;-144.15;0.00;65763.66;10235159;28;20493;-71
2020/12/13 01:01:48;;;;;;;5.28;4.78;;;;;;;-144.15;0.00;65763.66;10234449;28;20156;-71
2020/12/13 01:06:46;;;;;;;4.82;4.00;;;;;;;-144.15;0.00;65763.66;10234126;28;20053;-71
2020/12/13 01:11:44;;;;;;;16.40;10.95;;;;;;;-144.15;0.00;65763.66;10235056;28;20120;-70
2020/12/13 01:16:42;;;;;;;7.28;5.88;;;;;;;-144.15;0.00;65763.66;10233838;28;20045;-71
2020/12/13 01:21:40;;;;;;;9.75;8.25;;;;;;;-144.15;0.00;65763.66;10235618;28;20045;-71
2020/12/13 01:26:38;;;;;;;15.88;11.43;;;;;;;-144.15;0.00;65763.66;10235066;28;20398;-71
2020/12/13 01:31:39;;;;;;;14.65;9.60;;;;;;;-144.15;0.00;65763.66;10234881;28;20446;-71
2020/12/13 01:36:37;;;;;;;10.55;8.07;;;;;;;-144.15;0.00;65763.66;10235140;28;20048;-71
2020/12/13 01:41:35;;;;;;;10.05;8.70;;;;;;;-144.15;0.00;65763.66;10234909;28;20506;-71
2020/12/13 01:46:34;;;;;;;15.30;12.00;;;;;;;-144.15;0.00;65763.66;10234656;28;20041;-71
2020/12/13 01:51:46;;;;;;;25.17;16.58;;;;;;;-144.15;0.00;65763.66;10235017;28;20069;-72
2020/12/13 01:56:48;;;;;;;15.25;11.35;;;;;;;-144.15;0.00;65763.66;10238068;28;20049;-71
2020/12/13 02:01:48;;;;;;;8.38;6.90;;;;;;;-144.15;0.00;65763.66;10242435;28;20049;-72
2020/12/13 02:06:48;;;;;;;9.95;7.65;;;;;;;-144.15;0.00;65763.66;10242612;28;20391;-71
2020/12/13 02:11:47;;;;;;;58.50;38.95;;;;;;;-144.15;0.00;65763.66;10241707;28;20548;-71
2020/12/13 02:16:48;;;;;;;81.70;52.55;;;;;;;-144.15;0.00;65763.66;10241919;28;20077;-71
2020/12/13 02:21:47;;;;;;;10.55;7.55;;;;;;;-144.15;0.00;65763.66;10241149;28;20422;-71
2020/12/13 02:26:47;;;;;;;19.25;10.23;;;;;;;-144.15;0.00;65763.66;10241755;28;20045;-71
2020/12/13 02:31:45;;;;;;;198.93;116.57;;;;;;;-144.15;0.00;65763.66;10241139;28;20080;-72
2020/12/13 02:36:43;;;;;;;20.58;13.82;;;;;;;-144.15;0.00;65763.66;10239907;28;20052;-71
2020/12/13 02:41:41;;;;;;;64.82;37.10;;;;;;;-144.15;0.00;65763.66;10241141;28;20441;-71
2020/12/13 02:46:39;;;;;;;9.35;7.72;;;;;;;-144.15;0.00;65763.66;10241207;28;20042;-71
2020/12/13 02:51:37;;;;;;;12.10;10.90;;;;;;;-144.15;0.00;65763.66;10240017;28;20502;-71
2020/12/13 02:56:39;;;;;;;11.55;10.32;;;;;;;-144.15;0.00;65763.66;10240568;28;20053;-71
2020/12/13 03:01:37;;;;;;;6.88;6.18;;;;;;;-144.15;0.00;65763.66;10205638;28;20502;-72
2020/12/13 03:06:36;;;;;;;10.23;9.23;;;;;;;-144.15;0.00;65763.66;10195114;28;20100;-71
2020/12/13 03:11:33;;;;;;;6.13;5.00;;;;;;;-144.15;0.00;65763.66;10195792;28;20088;-72
2020/12/13 03:16:31;;;;;;;8.70;7.60;;;;;;;-144.15;0.00;65763.66;10198500;28;20525;-71
2020/12/13 03:21:29;;;;;;;7.35;6.65;;;;;;;-144.15;0.00;65763.66;10199420;28;20046;-71
2020/12/13 03:26:28;;;;;;;5.32;4.82;;;;;;;-144.15;0.00;65763.66;10199365;28;20513;-72
2020/12/13 03:31:26;;;;;;;4.82;4.32;;;;;;;-144.15;0.00;65763.66;10198915;28;20157;-71
2020/12/13 03:36:24;;;;;;;6.90;6.20;;;;;;;-144.15;0.00;65763.66;10198408;28;20069;-70
2020/12/13 03:41:22;;;;;;;11.20;7.50;;;;;;;-144.15;0.00;65763.66;10198608;28;20050;-71
2020/12/13 03:46:21;;;;;;;10.93;9.77;;;;;;;-144.15;0.00;65763.66;10198082;28;20436;-70
2020/12/13 03:51:20;;;;;;;13.95;10.45;;;;;;;-144.15;0.00;65763.66;10198579;28;20467;-71
2020/12/13 03:56:18;;;;;;;8.27;6.45;;;;;;;-144.15;0.00;65763.66;10197970;28;20138;-70
2020/12/13 04:01:16;;;;;;;6.18;5.57;;;;;;;-144.15;0.00;65763.66;10197914;28;20048;-70
2020/12/13 04:06:15;;;;;;;11.38;10.18;;;;;;;-144.15;0.00;65763.66;10197317;28;20065;-71
2020/12/13 04:11:13;;;;;;;4.53;4.05;;;;;;;-144.15;0.00;65763.66;10197062;28;20049;-71
2020/12/13 04:16:12;;;;;;;4.03;3.72;;;;;;;-144.15;0.00;65763.66;10196660;28;20578;-71
2020/12/13 04:21:10;;;;;;;4.45;4.00;;;;;;;-144.15;0.00;65763.66;10197568;28;20084;-72
2020/12/13 04:26:09;;;;;;;5.22;4.72;;;;;;;-144.15;0.00;65763.66;10197014;28;20096;-71
2020/12/13 04:31:07;;;;;;;5.20;4.70;;;;;;;-144.15;0.00;65763.66;10196510;28;20073;-71
2020/12/13 04:36:05;;;;;;;13.00;9.93;;;;;;;-144.15;0.00;65763.66;10196612;28;20450;-71
2020/12/13 04:41:03;;;;;;;8.85;6.60;;;;;;;-144.15;0.00;65763.66;10196182;28;20065;-71
2020/12/13 04:46:02;;;;;;;15.57;10.15;;;;;;;-144.15;0.00;65763.66;10196399;28;20041;-71
2020/12/13 04:51:00;;;;;;;21.92;14.15;;;;;;;-144.15;0.00;65763.66;10195743;28;20045;-70
2020/12/13 04:55:59;;;;;;;16.60;11.40;;;;;;;-144.15;0.00;65763.66;10195965;28;20074;-71
2020/12/13 05:00:59;;;;;;;5.15;4.65;;;;;;;-144.15;0.00;65763.66;10195366;28;20072;-70
2020/12/13 05:05:58;;;;;;;8.10;5.63;;;;;;;-144.15;0.00;65763.66;10195489;28;20092;-70
2020/12/13 05:10:58;;;;;;;13.88;8.60;;;;;;;-144.15;0.00;65763.66;10194106;28;20052;-71
2020/12/13 05:15:56;;;;;;;10.68;7.75;;;;;;;-144.15;0.00;65763.66;10195207;28;20088;-71
2020/12/13 05:20:54;;;;;;;12.13;8.50;;;;;;;-144.15;0.00;65763.66;10195175;28;20071;-71
2020/12/13 05:25:53;;;;;;;6.38;5.78;;;;;;;-144.15;0.00;65763.66;10195731;28;20062;-71
2020/12/13 05:30:51;;;;;;;7.10;5.88;;;;;;;-144.15;0.00;65763.66;10196342;28;20073;-72
2020/12/13 05:35:49;;;;;;;10.57;7.50;;;;;;;-144.15;0.00;65763.66;10202912;28;20074;-70
2020/12/13 05:40:47;;;;;;;9.88;8.10;;;;;;;-144.15;0.00;65763.66;10203708;28;20502;-70
2020/12/13 05:51:20;;;;;;;;;;;;;;;-144.15;0.00;65763.66;10202902;28;20053;-70
2020/12/13 05:56:20;;;;;;;21.85;15.93;;;;;;;-144.15;0.00;65763.66;10202329;28;20378;-71
2020/12/13 06:01:23;;;;;;;203.02;27.13;;;;;;;-144.15;0.00;65763.66;10202577;28;20422;-72
2020/12/13 06:06:22;;;;;;;11.95;9.77;;;;;;;-144.15;0.00;65763.66;10202636;28;20087;-71
2020/12/13 06:11:21;;;;;;;11.80;8.90;;;;;;;-144.15;0.00;65763.66;10201492;28;20054;-71
2020/12/13 06:16:19;;;;;;;9.13;8.23;;;;;;;-144.15;0.00;65763.66;10201602;28;20503;-73
2020/12/13 06:21:19;;;;;;;12.38;8.43;;;;;;;-144.15;0.00;65763.66;10201261;28;20053;-70
2020/12/13 06:26:17;;;;;;;13.02;9.57;;;;;;;-144.15;0.00;65763.66;10201174;28;20045;-72
2020/12/13 06:31:16;;;;;;;15.95;14.05;;;;;;;-144.15;0.00;65763.66;10200693;28;20065;-70
2020/12/13 06:36:14;;;;;;;10.70;8.35;;;;;;;-144.15;0.00;65763.66;10200257;28;20072;-71
2020/12/13 06:41:14;;;;;;;15.65;11.15;;;;;;;-144.15;0.00;65763.66;10200959;28;20054;-71
2020/12/13 06:46:16;;;;;;;12.40;10.30;;;;;;;-144.15;0.00;65763.66;10199865;28;20054;-71
2020/12/13 06:51:18;;;;;;;15.40;13.32;;;;;;;-144.15;0.00;65763.66;10200523;28;20494;-70
2020/12/13 06:56:18;;;;;;;54.47;35.13;;;;;;;-144.15;0.00;65763.66;10200224;28;20082;-71
2020/12/13 07:01:18;;;;;;;14.60;12.60;;;;;;;-144.15;0.00;65763.66;10200081;28;20053;-71
2020/12/13 07:06:19;;;;;;;14.23;12.93;;;;;;;-144.15;0.00;65763.66;10199862;28;20244;-71
2020/12/13 07:11:22;;;;;;;31.95;23.23;;;;;;;-144.15;0.00;65763.66;10200268;28;20550;-71
2020/12/13 07:16:31;;;;;;;23.30;17.55;;;;;;;-144.15;0.00;65763.66;10199884;28;20077;-70
2020/12/13 07:21:29;;;;;;;93.38;60.35;;;;;;;-144.15;0.00;65763.66;10199179;28;20053;-70
2020/12/13 07:26:30;;;;;;;159.20;94.22;;;;;;;-144.15;0.00;65763.66;10198949;28;20049;-71
2020/12/13 07:31:35;;;;;;;55.53;38.85;;;;;;;-144.15;0.00;65763.66;10199124;28;20050;-72
2020/12/13 07:36:34;;;;;;;16.85;14.60;;;;;;;-144.15;0.00;65763.66;10198603;28;20077;-72
2020/12/13 07:41:33;;;;;;;25.95;20.52;;;;;;;-144.15;0.00;65763.66;10198425;28;20379;-71
2020/12/13 07:46:32;;;;;;;21.25;17.95;;;;;;;-144.15;0.00;65763.66;10198212;28;20078;-71
2020/12/13 07:51:32;;;;;;;87.15;55.70;;;;;;;-144.15;0.00;65763.66;10202089;28;20529;-70
2020/12/13 07:56:29;;;;;;;111.05;47.90;;;;;;;-144.15;0.00;65763.66;10234943;28;20075;-71
2020/12/13 08:01:28;;;;;;;111.57;48.75;;;;;;;-144.15;0.00;65763.66;10232185;28;20080;-71
2020/12/13 08:06:26;;;;;;;68.72;37.75;;;;;;;-144.15;0.00;65763.66;10232095;28;20072;-71
2020/12/13 08:11:24;;;;;;;56.00;38.50;;;;;;;-144.15;0.00;65763.66;10232774;28;20785;-72
2020/12/13 08:16:26;;;;;;;35.67;25.65;;;;;;;-144.15;0.00;65763.66;10232218;28;20079;-71
2020/12/13 08:21:32;;;;;;;31.73;23.60;;;;;;;-144.15;0.00;65763.66;10234833;28;20046;-70
2020/12/13 08:26:36;;;;;;;150.85;91.97;;;;;;;-144.15;0.00;65763.66;10229421;28;20478;-71
2020/12/13 08:31:34;;;;;;;43.75;29.77;;;;;;;-144.15;0.00;65763.66;10228851;28;20069;-71
2020/12/13 08:36:34;;;;;;;22.08;17.70;;;;;;;-144.15;0.00;65763.66;10236847;28;20471;-72
2020/12/13 08:41:31;;;;;;;19.23;15.63;;;;;;;-144.15;0.00;65763.66;10231159;28;20061;-71
2020/12/13 08:46:37;;;;;;;44.28;34.42;;;;;;;-144.15;0.00;65763.66;10235409;28;20049;-72
2020/12/13 08:51:36;;;;;;;53.13;38.22;;;;;;;-144.15;0.00;65763.66;10235277;28;20081;-73
2020/12/13 08:56:36;;;;;;;55.25;35.33;;;;;;;-144.15;0.00;65763.66;10234336;28;20079;-73
2020/12/13 09:01:36;;;;;;;55.58;36.45;;;;;;;-144.15;0.00;65763.66;10224182;28;20053;-72
2020/12/13 09:06:36;;;;;;;23.20;18.48;;;;;;;-144.15;0.00;65763.66;10233132;28;20533;-71
2020/12/13 09:11:34;;;;;;;27.00;21.45;;;;;;;-144.15;0.00;65763.66;10226951;28;20534;-73
2020/12/13 09:16:33;;;;;;;34.13;24.55;;;;;;;-144.15;0.00;65763.66;10235275;28;20072;-72
2020/12/13 09:21:49;;;;;;;33.72;21.65;;;;;;;-144.15;0.00;65763.66;10231761;28;20069;-72
2020/12/13 09:27:05;;;;;;;48.30;29.27;;;;;;;-144.15;0.00;65763.66;10212544;28;20466;-70
2020/12/13 09:32:03;;;;;;;71.25;40.35;;;;;;;-144.15;0.00;65763.66;10224137;28;20077;-72
2020/12/13 09:37:02;;;;;;;55.53;32.20;;;;;;;-144.15;0.00;65763.66;10231491;28;20076;-72
2020/12/13 09:42:00;;;;;;;44.92;27.40;;;;;;;-144.15;0.00;65763.66;10227958;28;20068;-71
2020/12/13 09:47:00;;;;;;;58.60;38.35;;;;;;;-144.15;0.00;65763.66;10230369;28;20529;-72
2020/12/13 09:51:58;;;;;;;33.20;22.77;;;;;;;-144.15;0.00;65763.66;10228746;28;20087;-73
2020/12/13 09:56:58;;;;;;;53.00;31.45;;;;;;;-144.15;0.00;65763.66;10233372;28;20076;-70
2020/12/13 10:01:56;;;;;;;37.60;25.50;;;;;;;-144.15;0.00;65763.66;10232458;28;20069;-71
2020/12/13 10:07:13;;;;;;;22.23;17.83;;;;;;;-144.15;0.00;65763.66;10234153;28;20488;-71
2020/12/13 10:12:12;;;;;;;33.88;19.80;;;;;;;-144.15;0.00;65763.66;10234185;28;20100;-72
2020/12/13 10:17:09;;;;;;;118.70;58.88;;;;;;;-144.15;0.00;65763.66;10235450;28;20073;-72
2020/12/13 10:22:07;;;;;;;78.30;52.00;;;;;;;-144.15;0.00;65763.66;10240347;28;20053;-71
2020/12/13 10:27:05;;;;;;;38.28;26.00;;;;;;;-144.15;0.00;65763.66;10238173;28;20065;-72
2020/12/13 10:32:04;;;;;;;176.13;109.22;;;;;;;-144.15;0.00;65763.66;10239760;28;20087;-71
2020/12/13 10:37:02;;;;;;;48.38;28.45;;;;;;;-144.15;0.00;65763.66;10240045;28;21022;-73
2020/12/13 10:42:04;;;;;;;33.58;17.10;;;;;;;-144.15;0.00;65763.66;10239344;28;20068;-69
2020/12/13 10:47:05;;;;;;;50.80;26.95;;;;;;;-144.15;0.00;65763.66;10238244;28;20061;-71
2020/12/13 10:52:03;;;;;;;44.42;28.75;;;;;;;-144.15;0.00;65763.66;10240668;28;20085;-73
2020/12/13 10:57:01;;;;;;;26.80;16.77;;;;;;;-144.15;0.00;65763.66;10237263;28;20536;-70
2020/12/13 11:01:59;;;;;;;13.80;9.38;;;;;;;-144.15;0.00;65763.66;10234692;28;20065;-69
2020/12/13 11:06:58;;;;;;;52.78;35.13;;;;;;;-144.15;0.00;65763.66;10238212;28;20065;-72
2020/12/13 11:11:57;;;;;;;38.70;26.80;;;;;;;-144.15;0.00;65763.66;10238876;28;20054;-72
2020/12/13 11:16:55;;;;;;;30.05;20.80;;;;;;;-144.15;0.00;65763.66;10239197;28;20487;-72
2020/12/13 11:21:53;;;;;;;17.80;12.25;;;;;;;-144.15;0.00;65763.66;10234053;28;20518;-71
2020/12/13 11:26:52;;;;;;;23.80;16.48;;;;;;;-144.15;0.00;65763.66;10236210;28;20065;-72
2020/12/13 11:31:51;;;;;;;41.05;25.67;;;;;;;-144.15;0.00;65763.66;10232708;28;20069;-72
2020/12/13 11:36:49;;;;;;;21.60;15.40;;;;;;;-144.15;0.00;65763.66;10230789;28;20076;-72
2020/12/13 11:41:47;;;;;;;22.23;15.25;;;;;;;-144.15;0.00;65763.66;10232720;28;20076;-72
2020/12/13 11:46:48;;;;;;;25.88;15.98;;;;;;;-144.15;0.00;65763.66;10235410;28;20072;-72
2020/12/13 11:51:46;;;;;;;35.58;22.42;;;;;;;-144.15;0.00;65763.66;10238047;28;20323;-72
2020/12/13 11:56:44;;;;;;;21.85;12.25;;;;;;;-144.15;0.00;65763.66;10237880;28;20080;-72
2020/12/13 12:01:43;;;;;;;23.98;15.38;;;;;;;-144.15;0.00;65763.66;10237694;28;20052;-72
2020/12/13 12:06:45;;;;;;;18.73;12.10;;;;;;;-144.15;0.00;65763.66;10237815;28;20084;-71
2020/12/13 12:11:43;;;;;;;43.08;24.65;;;;;;;-144.15;0.00;65763.66;10236913;28;20439;-71
2020/12/13 12:16:43;;;;;;;45.10;26.05;;;;;;;-144.15;0.00;65763.66;10237083;28;20081;-72
2020/12/13 12:21:47;;;;;;;17.90;12.30;;;;;;;-144.15;0.00;65763.66;10237034;28;20046;-71
2020/12/13 12:26:44;;;;;;;84.50;36.15;;;;;;;-144.15;0.00;65763.66;10236390;28;20080;-70
2020/12/13 12:31:42;;;;;;;28.40;24.05;;;;;;;-144.15;0.00;65763.66;10236660;28;20065;-71
2020/12/13 12:36:40;;;;;;;25.58;20.45;;;;;;;-144.15;0.00;65763.66;10236220;28;20080;-70
2020/12/13 12:41:39;;;;;;;20.33;16.13;;;;;;;-144.15;0.00;65763.66;10236216;28;20537;-70
2020/12/13 12:46:37;;;;;;;46.78;26.98;;;;;;;-144.15;0.00;65763.66;10236181;28;20038;-71
2020/12/13 12:51:34;;;;;;;69.22;38.90;;;;;;;-144.15;0.00;65763.66;10236238;28;20779;-71
2020/12/13 12:56:32;;;;;;;56.33;34.60;;;;;;;-144.15;0.00;65763.66;10235817;28;20478;-71
2020/12/13 13:01:36;;;;;;;31.73;22.38;;;;;;;-144.15;0.00;65763.66;10236086;28;20049;-69
2020/12/13 13:07:00;;;;;;;323.30;149.50;;;;;;;-144.15;0.00;65763.66;10235358;28;20493;-71
2020/12/13 13:11:58;;;;;;;27.83;19.00;;;;;;;-144.15;0.00;65763.66;10233674;28;20077;-71
2020/12/13 13:17:03;;;;;;;29.08;17.98;;;;;;;-144.15;0.00;65763.66;10217269;28;20084;-70
2020/12/13 13:22:03;;;;;;;13.57;11.65;;;;;;;-144.15;0.00;65763.66;10231767;28;20462;-71
2020/12/13 13:27:02;;;;;;;19.15;13.07;;;;;;;-144.15;0.00;65763.66;10232610;28;20471;-71
2020/12/13 13:32:00;;;;;;;21.85;17.80;;;;;;;-144.15;0.00;65763.66;10233692;28;20073;-72
2020/12/13 13:36:58;;;;;;;43.38;29.33;;;;;;;-144.15;0.00;65763.66;10244445;28;20080;-72
2020/12/13 13:41:56;;;;;;;35.75;21.55;;;;;;;-144.15;0.00;65763.66;10234462;28;20049;-72
2020/12/13 13:47:00;;;;;;;52.95;43.00;;;;;;;-144.15;0.00;65763.66;10234238;28;20719;-72
2020/12/13 13:51:59;;;;;;;60.55;42.45;;;;;;;-144.15;0.00;65763.66;10235722;28;20296;-72
2020/12/13 13:57:01;;;;;;;253.70;138.60;;;;;;;-144.15;0.00;65763.66;10241771;28;20076;-72
2020/12/13 14:01:59;;;;;;;295.25;164.43;;;;;;;-144.15;0.00;65763.66;10242058;28;20489;-72
2020/12/13 14:12:16;;;;;;;161.63;93.40;;;;;;;-144.15;0.00;65763.66;10252166;28;20080;-72
2020/12/13 14:17:14;;;;;;;461.65;250.77;;;;;;;-144.15;0.00;65763.66;10266835;28;20084;-72
2020/12/13 14:22:13;;;;;;;244.20;137.27;;;;;;;-144.15;0.00;65763.66;10238972;28;20371;-71
2020/12/13 14:27:11;;;;;;;59.78;42.95;;;;;;;-144.15;0.00;65763.66;10240576;28;20069;-72
2020/12/13 14:32:10;;;;;;;43.10;31.30;;;;;;;-144.15;0.00;65763.66;10241089;28;20506;-72
2020/12/13 14:37:08;;;;;;;77.85;53.45;;;;;;;-144.15;0.00;65763.66;10240125;28;20069;-71
2020/12/13 14:42:06;;;;;;;56.53;41.00;;;;;;;-144.15;0.00;65763.66;10240635;28;20426;-71
2020/12/13 14:47:04;;;;;;;61.00;42.17;;;;;;;-144.15;0.00;65763.66;10240100;28;20054;-72
2020/12/13 14:52:04;;;;;;;83.78;49.72;;;;;;;-144.15;0.00;65763.66;10238254;28;20048;-72
2020/12/13 14:57:04;;;;;;;71.20;48.65;;;;;;;-144.15;0.00;65763.66;10239846;28;20506;-75
2020/12/13 15:02:03;;;;;;;81.82;57.50;;;;;;;-144.15;0.00;65763.66;10239526;28;20088;-72
2020/12/13 15:07:01;;;;;;;56.92;41.17;;;;;;;-144.15;0.00;65763.66;10237521;28;20065;-72
2020/12/13 15:12:01;;;;;;;50.70;37.70;;;;;;;-144.15;0.00;65763.66;10247593;28;20589;-73
2020/12/13 15:17:12;;;;;;;56.80;47.88;;;;;;;-144.15;0.00;65763.66;10268372;28;20081;-72
2020/12/13 15:22:10;;;;;;;90.75;67.03;;;;;;;-144.15;0.00;65763.66;10237142;28;20080;-70
2020/12/13 15:27:09;;;;;;;107.53;85.15;;;;;;;-144.15;0.00;65763.66;10238856;28;20068;-72
2020/12/13 15:32:07;;;;;;;38.67;28.65;;;;;;;-144.15;0.00;65763.66;10238997;28;20045;-73
2020/12/13 15:37:05;;;;;;;122.60;63.92;;;;;;;-144.15;0.00;65763.66;10238211;28;20076;-72
2020/12/13 15:42:03;;;;;;;52.05;37.28;;;;;;;-144.15;0.00;65763.66;10237946;28;20051;-72
2020/12/13 15:47:02;;;;;;;27.20;23.50;;;;;;;-144.15;0.00;65763.66;10237562;28;20065;-71
2020/12/13 15:52:00;;;;;;;31.10;22.80;;;;;;;-144.15;0.00;65763.66;10237797;28;20407;-72
2020/12/13 15:56:59;;;;;;;29.58;24.00;;;;;;;-144.15;0.00;65763.66;10237139;28;20076;-72
2020/12/13 16:01:58;;;;;;;31.45;24.90;;;;;;;-144.15;0.00;65763.66;10237220;28;20069;-72
2020/12/13 16:07:10;;;;;;;43.13;31.87;;;;;;;-144.15;0.00;65763.66;10236991;28;20046;-73
2020/12/13 16:12:08;;;;;;;46.50;35.78;;;;;;;-144.15;0.00;65763.66;10237798;28;20105;-73
2020/12/13 16:17:07;;;;;;;59.08;46.35;;;;;;;-144.15;0.00;65763.66;10233523;28;20497;-72
2020/12/13 16:22:11;;;;;;;77.50;54.67;;;;;;;-144.15;0.00;65763.66;10236602;28;20142;-73
2020/12/13 16:27:09;;;;;;;81.78;52.70;;;;;;;-144.15;0.00;65763.66;10234030;28;20069;-72
2020/12/13 16:32:10;;;;;;;87.75;48.95;;;;;;;-144.15;0.00;65763.66;10235669;28;20060;-71
2020/12/13 16:37:12;;;;;;;43.28;26.52;;;;;;;-144.15;0.00;65763.66;10234399;28;20080;-72
2020/12/13 16:42:12;;;;;;;47.05;30.98;;;;;;;-144.15;0.00;65763.66;10235617;28;20033;-73
2020/12/13 16:47:12;;;;;;;48.13;27.02;;;;;;;-144.15;0.00;65763.66;10235423;28;20037;-72
2020/12/13 16:57:26;;;;;;;94.88;51.35;;;;;;;-144.15;0.00;65763.66;10228172;28;20083;-72
2020/12/13 17:02:24;;;;;;;89.82;52.72;;;;;;;-144.15;0.00;65763.66;10235126;28;20056;-72
2020/12/13 17:07:23;;;;;;;84.93;60.85;;;;;;;-144.15;0.00;65763.66;10234161;28;20509;-72
2020/12/13 17:12:23;;;;;;;52.33;40.63;;;;;;;-144.15;0.00;65763.66;10236038;28;20073;-71
2020/12/13 17:17:21;;;;;;;53.30;38.70;;;;;;;-144.15;0.00;65763.66;10233530;28;20561;-71
2020/12/13 17:22:19;;;;;;;44.63;32.70;;;;;;;-144.15;0.00;65763.66;10232597;28;20079;-73
2020/12/13 17:27:17;;;;;;;32.42;23.50;;;;;;;-144.15;0.00;65763.66;10233584;28;20072;-70
2020/12/13 17:32:18;;;;;;;44.17;30.27;;;;;;;-144.15;0.00;65763.66;10234203;28;20547;-73
2020/12/13 17:37:18;;;;;;;88.03;48.45;;;;;;;-144.15;0.00;65763.66;10232966;28;20522;-73
2020/12/13 17:42:17;;;;;;;71.60;45.17;;;;;;;-144.15;0.00;65763.66;10234106;28;20041;-73
2020/12/13 17:47:18;;;;;;;77.70;49.90;;;;;;;-144.15;0.00;65763.66;10234169;28;20077;-72
2020/12/13 17:52:24;;;;;;;76.85;52.88;;;;;;;-144.15;0.00;65763.66;10233096;28;20076;-71
2020/12/13 17:57:30;;;;;;;37.92;25.88;;;;;;;-144.15;0.00;65763.66;10233752;28;20073;-72
2020/12/13 18:02:27;;;;;;;52.45;35.90;;;;;;;-144.15;0.00;65763.66;10233612;28;20046;-72
2020/12/13 18:07:25;;;;;;;42.92;30.70;;;;;;;-144.15;0.00;65763.66;10232313;28;20068;-72
2020/12/13 18:12:27;;;;;;;33.75;25.00;;;;;;;-144.15;0.00;65763.66;10245775;28;20053;-73
2020/12/13 18:17:25;;;;;;;51.35;37.13;;;;;;;-144.15;0.00;65763.66;10236007;28;20489;-74
2020/12/13 18:22:25;;;;;;;49.40;32.03;;;;;;;-144.15;0.00;65763.66;10232104;28;20041;-73
2020/12/13 18:27:25;;;;;;;51.13;30.83;;;;;;;-144.15;0.00;65763.66;10231604;28;20471;-73
2020/12/13 18:32:23;;;;;;;32.33;22.38;;;;;;;-144.15;0.00;65763.66;10229560;28;20065;-72
2020/12/13 18:37:22;;;;;;;40.58;25.40;;;;;;;-144.15;0.00;65763.66;10233114;28;20124;-72
2020/12/13 18:42:27;;;;;;;31.48;21.48;;;;;;;-144.15;0.00;65763.66;10240445;28;20073;-73
2020/12/13 18:47:26;;;;;;;41.58;25.65;;;;;;;-144.15;0.00;65763.66;10239948;28;20073;-72
2020/12/13 18:52:24;;;;;;;65.60;52.33;;;;;;;-144.15;0.00;65763.66;10240524;28;20056;-71
2020/12/13 18:57:21;;;;;;;40.30;28.23;;;;;;;-144.15;0.00;65763.66;10240066;28;20073;-73
2020/12/13 19:02:27;;;;;;;41.40;32.70;;;;;;;-144.15;0.00;65763.66;10239755;28;20046;-72
2020/12/13 19:07:26;;;;;;;;;;;;;;;-144.15;0.00;65763.66;10240562;28;20463;-72
2020/12/13 19:12:24;;;;;;;41.22;30.08;;;;;;;-144.15;0.00;65763.66;10251205;28;20397;-71
2020/12/13 19:17:24;;;;;;;33.22;25.80;;;;;;;-144.15;0.00;65763.66;10265618;28;20072;-71
2020/12/13 19:22:23;;;;;;;26.13;20.95;;;;;;;-144.15;0.00;65763.66;10238878;28;20073;-72
2020/12/13 19:27:26;;;;;;;33.28;23.20;;;;;;;-144.15;0.00;65763.66;10238930;28;20045;-72
2020/12/13 19:32:28;;;;;;;21.65;17.05;;;;;;;-144.15;0.00;65763.66;10238724;28;20042;-72
2020/12/13 19:37:26;;;;;;;23.08;18.10;;;;;;;-144.15;0.00;65763.66;10238954;28;20077;-71
2020/12/13 19:42:23;;;;;;;16.20;13.82;;;;;;;-144.15;0.00;65763.66;10238026;28;20076;-72
2020/12/13 19:47:21;;;;;;;21.08;16.88;;;;;;;-144.15;0.00;65763.66;10238523;28;20498;-72
2020/12/13 19:52:20;;;;;;;22.35;17.50;;;;;;;-144.15;0.00;65763.66;10236271;28;20069;-73
2020/12/13 19:57:18;;;;;;;22.83;16.35;;;;;;;-144.15;0.00;65763.66;10236381;28;20080;-71
2020/12/13 20:02:16;;;;;;;29.67;21.42;;;;;;;-144.15;0.00;65763.66;10237730;28;20096;-71
2020/12/13 20:07:16;;;;;;;38.03;27.77;;;;;;;-144.15;0.00;65763.66;10236481;28;20079;-70
2020/12/13 20:12:15;;;;;;;17.73;14.90;;;;;;;-144.15;0.00;65763.66;10236268;28;20057;-70
2020/12/13 20:17:26;;;;;;;42.88;29.92;;;;;;;-144.15;0.00;65763.66;10236801;28;20077;-70
2020/12/13 20:22:52;;;;;;;61.95;32.67;;;;;;;-144.15;0.00;65763.66;10233596;28;20084;-68
2020/12/13 20:39:31;;;;;;;75.47;38.28;;;;;;;-144.15;0.00;65763.66;10237144;28;20081;-70
2020/12/13 21:21:12;;;;;;;170.85;111.10;;;;;;;-144.15;0.00;65763.66;10235439;28;20080;-69
2020/12/13 21:47:14;;;;;;;52.65;33.20;;;;;;;-144.15;0.00;65763.66;10233439;28;20091;-70
2020/12/13 21:52:12;;;;;;;90.25;53.88;;;;;;;-144.15;0.00;65763.66;10235057;28;20045;-70
2020/12/13 21:57:16;;;;;;;145.10;89.88;;;;;;;-144.15;0.00;65763.66;10233737;28;20069;-70
2020/12/13 22:28:47;;;;;;;20.10;14.98;;;;;;;-144.15;0.00;65763.66;10242280;28;20049;-70
2020/12/13 22:33:46;;;;;;;66.63;47.20;;;;;;;-144.15;0.00;65763.66;10241865;28;20056;-69
2020/12/13 22:38:44;;;;;;;75.50;49.50;;;;;;;-144.15;0.00;65763.66;10241487;28;20076;-69
2020/12/13 22:43:42;;;;;;;62.30;40.30;;;;;;;-144.15;0.00;65763.66;10238714;28;20085;-70
2020/12/13 22:48:39;;;;;;;98.43;67.13;;;;;;;-144.15;0.00;65763.66;10239930;28;20068;-70
2020/12/13 22:53:38;;;;;;;94.13;59.45;;;;;;;-144.15;0.00;65763.66;10237784;28;20455;-70
2020/12/13 22:58:36;;;;;;;53.67;36.67;;;;;;;-144.15;0.00;65763.66;10240723;28;20080;-71
2020/12/13 23:03:33;;;;;;;29.50;22.27;;;;;;;-144.15;0.00;65763.66;10240822;28;20073;-68
2020/12/13 23:08:31;;;;;;;33.88;25.85;;;;;;;-144.15;0.00;65763.66;10239862;28;20418;-70
2020/12/13 23:13:30;;;;;;;33.78;23.55;;;;;;;-144.15;0.00;65763.66;10239889;28;20057;-69
2020/12/13 23:18:28;;;;;;;37.45;28.95;;;;;;;-144.15;0.00;65763.66;10240322;28;20077;-69
2020/12/13 23:23:26;;;;;;;25.25;17.30;;;;;;;-144.15;0.00;65763.66;10238624;28;20470;-68
2020/12/13 23:28:24;;;;;;;52.55;37.88;;;;;;;-144.15;0.00;65763.66;10239248;28;20062;-71
2020/12/13 23:33:22;;;;;;;29.27;18.92;;;;;;;-144.15;0.00;65763.66;10239650;28;20049;-70
2020/12/13 23:38:20;;;;;;;301.35;115.32;;;;;;;-144.15;0.00;65763.66;10238941;28;20085;-70
2020/12/13 23:43:18;;;;;;;163.85;75.20;;;;;;;-144.15;0.00;65763.66;10239138;28;20076;-70
2020/12/13 23:48:16;;;;;;;173.25;93.78;;;;;;;-144.15;0.00;65763.66;10239080;28;20049;-70
2020/12/13 23:53:14;;;;;;;30.30;19.13;;;;;;;-144.15;0.00;65763.66;10238826;28;20077;-71
2020/12/13 23:58:12;;;;;;;40.17;25.50;;;;;;;-144.15;0.00;65763.66;10238472;28;20080;-70
